BHS3252 MYNN-MYGF
Flight info
| Callsign | BHS3252 |
|---|---|
| Flight time | 0h 33m |
| Altitude | 12000 |
| Route | DCT PEACH BR65V ZFP DCT |
| Aircraft | DH8C/M-SDFGR/S |
Departure
| Time | 2026-04-22 00:52 |
|---|---|
| Airport | Lynden Pindling International Airport (MYNN) |
Arrival
| Time | 2026-04-22 01:25 |
|---|---|
| Airport | Grand Bahama International Airport (MYGF) |
| Time | Latitude | Longitude | Altitude | Speed | Heading |
|---|---|---|---|---|---|
| 2026-04-22 00:37 | 25.04746 | -77.46524 | 25 ft | 0 kts | 358° |
| 2026-04-22 00:47 | 25.04748 | -77.46523 | 25 ft | 0 kts | 24° |
| 2026-04-22 00:47 | 25.04749 | -77.46519 | 25 ft | 0 kts | 104° |
| 2026-04-22 00:47 | 25.04731 | -77.46516 | 25 ft | 5 kts | 189° |
| 2026-04-22 00:48 | 25.04681 | -77.46558 | 25 ft | 11 kts | 224° |
| 2026-04-22 00:48 | 25.04687 | -77.46627 | 25 ft | 11 kts | 315° |
| 2026-04-22 00:48 | 25.04737 | -77.46699 | 25 ft | 12 kts | 264° |
| 2026-04-22 00:48 | 25.04709 | -77.46775 | 25 ft | 13 kts | 292° |
| 2026-04-22 00:49 | 25.04787 | -77.46866 | 25 ft | 18 kts | 317° |
| 2026-04-22 00:49 | 25.04885 | -77.46978 | 25 ft | 22 kts | 314° |
| 2026-04-22 00:49 | 25.05000 | -77.47106 | 26 ft | 23 kts | 315° |
| 2026-04-22 00:49 | 25.05097 | -77.47215 | 25 ft | 20 kts | 314° |
| 2026-04-22 00:50 | 25.05184 | -77.47311 | 25 ft | 12 kts | 316° |
| 2026-04-22 00:50 | 25.05219 | -77.47389 | 25 ft | 9 kts | 272° |
| 2026-04-22 00:50 | 25.05216 | -77.47433 | 25 ft | 5 kts | 261° |
| 2026-04-22 00:50 | 25.05193 | -77.47496 | 25 ft | 12 kts | 232° |
| 2026-04-22 00:51 | 25.05119 | -77.47501 | 25 ft | 12 kts | 133° |
| 2026-04-22 00:51 | 25.05054 | -77.47426 | 25 ft | 17 kts | 134° |
| 2026-04-22 00:51 | 25.04857 | -77.47208 | 26 ft | 76 kts | 134° |
| 2026-04-22 00:51 | 25.04318 | -77.46610 | 97 ft | 130 kts | 131° |
| 2026-04-22 00:52 | 25.03634 | -77.45856 | 507 ft | 151 kts | 132° |
| 2026-04-22 00:52 | 25.02855 | -77.45006 | 1003 ft | 167 kts | 131° |
| 2026-04-22 00:52 | 25.02027 | -77.44082 | 1418 ft | 175 kts | 131° |
| 2026-04-22 00:52 | 25.01271 | -77.43012 | 1802 ft | 177 kts | 115° |
| 2026-04-22 00:53 | 25.00985 | -77.41707 | 2173 ft | 177 kts | 85° |
| 2026-04-22 00:53 | 25.01487 | -77.40516 | 2565 ft | 177 kts | 41° |
| 2026-04-22 00:53 | 25.02634 | -77.40123 | 2958 ft | 182 kts | 356° |
| 2026-04-22 00:53 | 25.03725 | -77.40809 | 3353 ft | 191 kts | 311° |
| 2026-04-22 00:54 | 25.04552 | -77.41953 | 3785 ft | 190 kts | 319° |
| 2026-04-22 00:54 | 25.05533 | -77.42941 | 4199 ft | 191 kts | 322° |
| 2026-04-22 00:54 | 25.06547 | -77.43877 | 4604 ft | 192 kts | 323° |
| 2026-04-22 00:54 | 25.07581 | -77.44797 | 5007 ft | 193 kts | 323° |
| 2026-04-22 00:55 | 25.08638 | -77.45732 | 5413 ft | 195 kts | 323° |
| 2026-04-22 00:55 | 25.09687 | -77.46661 | 5815 ft | 196 kts | 323° |
| 2026-04-22 00:55 | 25.11816 | -77.48545 | 6620 ft | 198 kts | 322° |
| 2026-04-22 00:56 | 25.12894 | -77.49501 | 7024 ft | 199 kts | 322° |
| 2026-04-22 00:56 | 25.13976 | -77.50459 | 7427 ft | 199 kts | 322° |
| 2026-04-22 00:56 | 25.15056 | -77.51416 | 7826 ft | 200 kts | 322° |
| 2026-04-22 00:56 | 25.16146 | -77.52383 | 8228 ft | 201 kts | 321° |
| 2026-04-22 00:57 | 25.17244 | -77.53357 | 8630 ft | 202 kts | 321° |
| 2026-04-22 00:57 | 25.18337 | -77.54328 | 9028 ft | 203 kts | 321° |
| 2026-04-22 00:57 | 25.19430 | -77.55299 | 9424 ft | 204 kts | 321° |
| 2026-04-22 00:57 | 25.20547 | -77.56289 | 9825 ft | 205 kts | 321° |
| 2026-04-22 00:58 | 25.21672 | -77.57287 | 10239 ft | 215 kts | 321° |
| 2026-04-22 00:58 | 25.22856 | -77.58336 | 10656 ft | 223 kts | 320° |
| 2026-04-22 00:58 | 25.24088 | -77.59430 | 11072 ft | 231 kts | 320° |
| 2026-04-22 00:58 | 25.25355 | -77.60555 | 11483 ft | 238 kts | 320° |
| 2026-04-22 00:59 | 25.26656 | -77.61711 | 11887 ft | 244 kts | 320° |
| 2026-04-22 00:59 | 25.28016 | -77.62920 | 12012 ft | 261 kts | 320° |
| 2026-04-22 00:59 | 25.29474 | -77.64219 | 12017 ft | 277 kts | 320° |
| 2026-04-22 00:59 | 25.30982 | -77.65560 | 12003 ft | 281 kts | 320° |
| 2026-04-22 01:00 | 25.32515 | -77.66924 | 12001 ft | 282 kts | 320° |
| 2026-04-22 01:00 | 25.34028 | -77.68270 | 11998 ft | 279 kts | 320° |
| 2026-04-22 01:00 | 25.35537 | -77.69613 | 11998 ft | 277 kts | 320° |
| 2026-04-22 01:00 | 25.37041 | -77.70952 | 11998 ft | 276 kts | 320° |
| 2026-04-22 01:01 | 25.38527 | -77.72276 | 11999 ft | 275 kts | 320° |
| 2026-04-22 01:01 | 25.40005 | -77.73592 | 11999 ft | 274 kts | 320° |
| 2026-04-22 01:01 | 25.41490 | -77.74920 | 11923 ft | 276 kts | 321° |
| 2026-04-22 01:01 | 25.43006 | -77.76273 | 11782 ft | 280 kts | 321° |
| 2026-04-22 01:02 | 25.44507 | -77.77606 | 11780 ft | 279 kts | 321° |
| 2026-04-22 01:02 | 25.46013 | -77.78947 | 11778 ft | 277 kts | 321° |
| 2026-04-22 01:02 | 25.47094 | -77.79911 | 11779 ft | 277 kts | 321° |
| 2026-04-22 01:02 | 25.47905 | -77.80629 | 11883 ft | 272 kts | 320° |
| 2026-04-22 01:03 | 25.49355 | -77.81917 | 12014 ft | 267 kts | 320° |
| 2026-04-22 01:03 | 25.50796 | -77.83211 | 12017 ft | 268 kts | 320° |
| 2026-04-22 01:03 | 25.52247 | -77.84511 | 12019 ft | 268 kts | 320° |
| 2026-04-22 01:03 | 25.53687 | -77.85799 | 12019 ft | 269 kts | 320° |
| 2026-04-22 01:04 | 25.55152 | -77.87110 | 12019 ft | 269 kts | 320° |
| 2026-04-22 01:04 | 25.56624 | -77.88375 | 12019 ft | 270 kts | 322° |
| 2026-04-22 01:04 | 25.58129 | -77.89616 | 12018 ft | 270 kts | 322° |
| 2026-04-22 01:04 | 25.59648 | -77.90858 | 12018 ft | 271 kts | 322° |
| 2026-04-22 01:05 | 25.61166 | -77.92095 | 12018 ft | 271 kts | 322° |
| 2026-04-22 01:05 | 25.62679 | -77.93328 | 12018 ft | 271 kts | 322° |
| 2026-04-22 01:05 | 25.64184 | -77.94556 | 12018 ft | 271 kts | 322° |
| 2026-04-22 01:05 | 25.65702 | -77.95793 | 12018 ft | 271 kts | 322° |
| 2026-04-22 01:06 | 25.67233 | -77.97042 | 12018 ft | 271 kts | 322° |
| 2026-04-22 01:06 | 25.68741 | -77.98273 | 12018 ft | 271 kts | 322° |
| 2026-04-22 01:06 | 25.70264 | -77.99516 | 12018 ft | 271 kts | 322° |
| 2026-04-22 01:06 | 25.71789 | -78.00761 | 12018 ft | 271 kts | 322° |
| 2026-04-22 01:07 | 25.73309 | -78.02003 | 12019 ft | 271 kts | 322° |
| 2026-04-22 01:07 | 25.74817 | -78.03235 | 12020 ft | 271 kts | 322° |
| 2026-04-22 01:07 | 25.76319 | -78.04463 | 12022 ft | 271 kts | 322° |
| 2026-04-22 01:07 | 25.77839 | -78.05705 | 12025 ft | 271 kts | 322° |
| 2026-04-22 01:08 | 25.79347 | -78.06939 | 12028 ft | 271 kts | 322° |
| 2026-04-22 01:08 | 25.80860 | -78.08177 | 12031 ft | 270 kts | 322° |
| 2026-04-22 01:08 | 25.82373 | -78.09415 | 12034 ft | 270 kts | 322° |
| 2026-04-22 01:08 | 25.83899 | -78.10664 | 12036 ft | 270 kts | 322° |
| 2026-04-22 01:09 | 25.85411 | -78.11903 | 12038 ft | 270 kts | 322° |
| 2026-04-22 01:09 | 25.86910 | -78.13130 | 12040 ft | 270 kts | 322° |
| 2026-04-22 01:09 | 25.88425 | -78.14372 | 12042 ft | 270 kts | 322° |
| 2026-04-22 01:09 | 25.89936 | -78.15610 | 12043 ft | 270 kts | 322° |
| 2026-04-22 01:10 | 25.91438 | -78.16842 | 12044 ft | 270 kts | 322° |
| 2026-04-22 01:10 | 25.92952 | -78.18084 | 12045 ft | 270 kts | 322° |
| 2026-04-22 01:10 | 25.94451 | -78.19313 | 11854 ft | 271 kts | 323° |
| 2026-04-22 01:10 | 25.95971 | -78.20562 | 11469 ft | 271 kts | 323° |
| 2026-04-22 01:11 | 25.97471 | -78.21795 | 11100 ft | 271 kts | 323° |
| 2026-04-22 01:11 | 25.98983 | -78.23037 | 10727 ft | 271 kts | 323° |
| 2026-04-22 01:11 | 26.00512 | -78.24293 | 10349 ft | 271 kts | 323° |
| 2026-04-22 01:11 | 26.02008 | -78.25523 | 9978 ft | 270 kts | 323° |
| 2026-04-22 01:12 | 26.03517 | -78.26763 | 9602 ft | 268 kts | 323° |
| 2026-04-22 01:12 | 26.03942 | -78.27113 | 9493 ft | 265 kts | 323° |
| 2026-04-22 01:12 | 26.05324 | -78.28249 | 9127 ft | 259 kts | 323° |
| 2026-04-22 01:12 | 26.06747 | -78.29421 | 8745 ft | 254 kts | 323° |
| 2026-04-22 01:13 | 26.08141 | -78.30570 | 8366 ft | 249 kts | 323° |
| 2026-04-22 01:13 | 26.09516 | -78.31700 | 7987 ft | 246 kts | 324° |
| 2026-04-22 01:13 | 26.10902 | -78.32838 | 7608 ft | 249 kts | 324° |
| 2026-04-22 01:13 | 26.12260 | -78.34087 | 7243 ft | 259 kts | 317° |
| 2026-04-22 01:14 | 26.13589 | -78.35477 | 6884 ft | 265 kts | 317° |
| 2026-04-22 01:14 | 26.14902 | -78.36912 | 6522 ft | 270 kts | 316° |
| 2026-04-22 01:14 | 26.16233 | -78.38415 | 6153 ft | 274 kts | 315° |
| 2026-04-22 01:14 | 26.17567 | -78.39940 | 5783 ft | 276 kts | 315° |
| 2026-04-22 01:15 | 26.18891 | -78.41463 | 5416 ft | 277 kts | 315° |
| 2026-04-22 01:15 | 26.20240 | -78.43017 | 5042 ft | 278 kts | 315° |
| 2026-04-22 01:15 | 26.21574 | -78.44556 | 4706 ft | 278 kts | 315° |
| 2026-04-22 01:15 | 26.22906 | -78.46094 | 4529 ft | 271 kts | 316° |
| 2026-04-22 01:16 | 26.24209 | -78.47599 | 4348 ft | 267 kts | 316° |
| 2026-04-22 01:16 | 26.25480 | -78.49067 | 4171 ft | 264 kts | 316° |
| 2026-04-22 01:16 | 26.26755 | -78.50539 | 3993 ft | 261 kts | 316° |
| 2026-04-22 01:16 | 26.27998 | -78.51976 | 3818 ft | 260 kts | 316° |
| 2026-04-22 01:17 | 26.29265 | -78.53440 | 3640 ft | 258 kts | 316° |
| 2026-04-22 01:17 | 26.30496 | -78.54864 | 3466 ft | 257 kts | 316° |
| 2026-04-22 01:17 | 26.31735 | -78.56297 | 3292 ft | 256 kts | 316° |
| 2026-04-22 01:17 | 26.32993 | -78.57728 | 3121 ft | 256 kts | 315° |
| 2026-04-22 01:18 | 26.34213 | -78.59127 | 3014 ft | 253 kts | 314° |
| 2026-04-22 01:18 | 26.35423 | -78.60542 | 2909 ft | 251 kts | 314° |
| 2026-04-22 01:18 | 26.36630 | -78.61953 | 2805 ft | 249 kts | 314° |
| 2026-04-22 01:18 | 26.37811 | -78.63328 | 2704 ft | 247 kts | 314° |
| 2026-04-22 01:19 | 26.39008 | -78.64718 | 2602 ft | 246 kts | 314° |
| 2026-04-22 01:19 | 26.40166 | -78.66061 | 2503 ft | 245 kts | 314° |
| 2026-04-22 01:19 | 26.41355 | -78.67442 | 2401 ft | 244 kts | 314° |
| 2026-04-22 01:19 | 26.42477 | -78.68742 | 2273 ft | 222 kts | 314° |
| 2026-04-22 01:20 | 26.43491 | -78.69919 | 2206 ft | 199 kts | 314° |
| 2026-04-22 01:20 | 26.44406 | -78.70984 | 2206 ft | 181 kts | 314° |
| 2026-04-22 01:20 | 26.45255 | -78.71972 | 2221 ft | 173 kts | 314° |
| 2026-04-22 01:20 | 26.46070 | -78.72921 | 2224 ft | 168 kts | 314° |
| 2026-04-22 01:21 | 26.46865 | -78.73846 | 2267 ft | 159 kts | 314° |
| 2026-04-22 01:21 | 26.47612 | -78.74712 | 2049 ft | 156 kts | 314° |
| 2026-04-22 01:21 | 26.48370 | -78.75593 | 1729 ft | 161 kts | 314° |
| 2026-04-22 01:21 | 26.49176 | -78.76527 | 1432 ft | 170 kts | 314° |
| 2026-04-22 01:22 | 26.50088 | -78.77358 | 1092 ft | 168 kts | 338° |
| 2026-04-22 01:22 | 26.51165 | -78.77343 | 838 ft | 148 kts | 24° |
| 2026-04-22 01:22 | 26.51883 | -78.76707 | 862 ft | 125 kts | 47° |
| 2026-04-22 01:22 | 26.52430 | -78.75969 | 834 ft | 122 kts | 53° |
| 2026-04-22 01:23 | 26.52916 | -78.75224 | 861 ft | 112 kts | 54° |
| 2026-04-22 01:23 | 26.53369 | -78.74507 | 818 ft | 113 kts | 56° |
| 2026-04-22 01:23 | 26.53777 | -78.73763 | 703 ft | 113 kts | 61° |
| 2026-04-22 01:23 | 26.54141 | -78.73038 | 482 ft | 102 kts | 60° |
| 2026-04-22 01:24 | 26.54486 | -78.72343 | 248 ft | 104 kts | 62° |
| 2026-04-22 01:24 | 26.54840 | -78.71628 | 168 ft | 108 kts | 60° |
| 2026-04-22 01:24 | 26.55202 | -78.70892 | 63 ft | 108 kts | 61° |
| 2026-04-22 01:24 | 26.55564 | -78.70166 | 22 ft | 105 kts | 61° |
| 2026-04-22 01:25 | 26.55918 | -78.69456 | 18 ft | 105 kts | 61° |
| 2026-04-22 01:25 | 26.56225 | -78.68836 | 12 ft | 69 kts | 61° |
| 2026-04-22 01:25 | 26.56404 | -78.68471 | 12 ft | 40 kts | 62° |
| 2026-04-22 01:25 | 26.56443 | -78.68368 | 12 ft | 1 kts | 41° |
| 2026-04-22 01:26 | 26.56449 | -78.68379 | 12 ft | 4 kts | 262° |
| 2026-04-22 01:26 | 26.56421 | -78.68446 | 12 ft | 19 kts | 240° |
| 2026-04-22 01:26 | 26.56327 | -78.68635 | 12 ft | 30 kts | 240° |
| 2026-04-22 01:26 | 26.56235 | -78.68821 | 12 ft | 23 kts | 240° |
| 2026-04-22 01:27 | 26.56156 | -78.68980 | 12 ft | 23 kts | 240° |
| 2026-04-22 01:27 | 26.56075 | -78.69141 | 12 ft | 23 kts | 240° |
| 2026-04-22 01:27 | 26.55994 | -78.69302 | 12 ft | 23 kts | 239° |
| 2026-04-22 01:27 | 26.55870 | -78.69412 | 12 ft | 24 kts | 195° |
| 2026-04-22 01:28 | 26.55725 | -78.69505 | 12 ft | 24 kts | 221° |
| 2026-04-22 01:28 | 26.55595 | -78.69634 | 12 ft | 25 kts | 220° |
| 2026-04-22 01:28 | 26.55460 | -78.69764 | 12 ft | 25 kts | 221° |
| 2026-04-22 01:28 | 26.55325 | -78.69897 | 12 ft | 26 kts | 221° |
| 2026-04-22 01:29 | 26.55188 | -78.70030 | 12 ft | 26 kts | 221° |
| 2026-04-22 01:29 | 26.55054 | -78.70159 | 12 ft | 21 kts | 220° |
| 2026-04-22 01:29 | 26.54964 | -78.70241 | 12 ft | 13 kts | 202° |
| 2026-04-22 01:29 | 26.54921 | -78.70197 | 12 ft | 11 kts | 92° |
| 2026-04-22 01:30 | 26.54918 | -78.70092 | 12 ft | 15 kts | 91° |
| 2026-04-22 01:30 | 26.54915 | -78.69958 | 12 ft | 19 kts | 91° |
| 2026-04-22 01:30 | 26.54911 | -78.69801 | 12 ft | 19 kts | 91° |
| 2026-04-22 01:30 | 26.54908 | -78.69666 | 12 ft | 13 kts | 91° |
| 2026-04-22 01:31 | 26.54890 | -78.69612 | 12 ft | 5 kts | 160° |
| 2026-04-22 01:31 | 26.54860 | -78.69620 | 12 ft | 2 kts | 238° |
| 2026-04-22 01:31 | 26.54860 | -78.69638 | 12 ft | 0 kts | 276° |